Terminal Aerodrome Forecast
Issued by NWS

Home | Current Version | Previous Version | Text Only | Print | Product List | Glossary On
Versions: 1 2 3 4 5 6 7 8 9 10 11 12 13
000
FTUS46 KSEW 232335
TAFHQM
TAF
KHQM 232335Z 2400/2424 17016G24KT 1 1/2SM -SN BR OVC012
      TEMPO 2400/2401 4SM -RA BR OVC015
     FM240100 18018G28KT 4SM -RA BR OVC015
     FM240600 24014G23KT 3SM -SHRA OVC012
     FM241400 25018G28KT P6SM -SHRA SCT018 BKN040=

USA.gov is the U.S. government's official web portal to all federal, state and local government web resources and services.